Time;durP1;ratioP1;P1;durP2;ratioP2;P2;SDS_P1;SDS_P2;PMS_P1;PMS_P2;Temp;Humidity;BMP_temperature;BMP_pressure;BME280_temperature;BME280_humidity;BME280_pressure;Samples;Min_cycle;Max_cycle;Signal;HPM_P1;HPM_P2
2023/04/26 04:29:07;;;;;;;12.63;1.40;;;11.60;57.90;;;;;;5242772;23;20021;-74
2023/04/26 04:31:36;;;;;;;9.98;1.33;;;11.70;57.40;;;;;;4956393;29;20083;-74
2023/04/26 04:34:02;;;;;;;14.55;2.17;;;12.10;57.50;;;;;;4958131;29;20059;-75
2023/04/26 04:36:28;;;;;;;19.05;2.40;;;12.30;57.60;;;;;;4958417;29;20054;-74
2023/04/26 04:38:53;;;;;;;22.23;4.00;;;12.50;57.90;;;;;;4958286;29;20070;-74
2023/04/26 04:41:21;;;;;;;21.48;3.33;;;12.80;59.10;;;;;;4940696;29;20047;-74
2023/04/26 04:43:47;;;;;;;19.10;2.58;;;13.10;58.30;;;;;;4957113;29;20047;-74
2023/04/26 04:46:12;;;;;;;26.38;3.20;;;13.30;58.50;;;;;;4941272;29;20054;-74
2023/04/26 04:48:38;;;;;;;26.38;3.85;;;13.50;58.50;;;;;;4958172;29;20062;-74
2023/04/26 04:51:05;;;;;;;25.67;4.18;;;13.70;58.40;;;;;;4954123;29;20087;-75
2023/04/26 04:53:30;;;;;;;28.90;3.33;;;13.90;58.50;;;;;;4951870;29;20109;-76
2023/04/26 04:55:56;;;;;;;34.42;4.45;;;14.00;58.60;;;;;;4957358;29;20469;-74
2023/04/26 04:58:22;;;;;;;30.30;3.78;;;14.10;58.50;;;;;;4958400;29;20043;-79
2023/04/26 05:00:49;;;;;;;32.65;3.75;;;14.20;58.60;;;;;;4940803;29;20126;-78
2023/04/26 05:03:15;;;;;;;31.27;3.90;;;14.20;58.80;;;;;;4957891;29;20354;-79
2023/04/26 05:05:41;;;;;;;33.67;4.70;;;14.30;59.00;;;;;;4956426;29;20046;-79
2023/04/26 05:08:07;;;;;;;33.03;4.55;;;14.30;59.20;;;;;;4949989;29;20502;-77
2023/04/26 05:10:33;;;;;;;27.58;3.72;;;14.30;59.10;;;;;;4957550;29;20039;-79
2023/04/26 05:12:59;;;;;;;28.60;3.83;;;14.40;59.10;;;;;;4957993;29;20058;-78
2023/04/26 05:15:25;;;;;;;28.65;3.00;;;14.40;59.00;;;;;;4921501;29;20052;-78
2023/04/26 05:17:51;;;;;;;24.45;3.78;;;14.50;58.80;;;;;;4921525;29;20118;-79
2023/04/26 05:20:17;;;;;;;23.27;2.88;;;14.50;59.00;;;;;;4955502;29;20039;-76
2023/04/26 05:22:43;;;;;;;26.70;2.88;;;14.60;59.20;;;;;;4954408;29;20106;-76
2023/04/26 05:25:09;;;;;;;22.65;3.45;;;14.60;59.30;;;;;;4940351;29;20055;-78
2023/04/26 05:27:36;;;;;;;18.10;2.65;;;14.70;59.10;;;;;;4957390;29;20097;-76
2023/04/26 05:30:06;;;;;;;23.45;3.05;;;14.80;58.90;;;;;;4955697;29;20085;-76
2023/04/26 05:32:32;;;;;;;15.18;2.30;;;14.90;58.80;;;;;;4956786;28;20066;-77
2023/04/26 05:34:58;;;;;;;18.63;2.95;;;14.70;56.40;;;;;;4948669;29;20378;-78
2023/04/26 05:37:24;;;;;;;16.52;3.10;;;14.80;58.40;;;;;;4954228;29;20078;-77
2023/04/26 05:39:50;;;;;;;16.13;2.35;;;14.90;58.70;;;;;;4957113;29;20462;-79
2023/04/26 05:42:15;;;;;;;15.38;2.35;;;15.00;58.70;;;;;;4957010;29;20374;-76
2023/04/26 05:44:41;;;;;;;13.73;2.30;;;15.20;58.50;;;;;;4956304;29;20039;-77
2023/04/26 05:47:07;;;;;;;8.82;2.25;;;15.20;58.40;;;;;;4956983;29;20057;-78
2023/04/26 05:49:33;;;;;;;18.40;2.08;;;15.30;58.30;;;;;;4957252;29;20078;-77
2023/04/26 05:51:59;;;;;;;20.65;2.67;;;15.30;58.00;;;;;;4957259;29;20059;-76
2023/04/26 05:54:25;;;;;;;24.83;2.78;;;15.30;57.70;;;;;;4955184;29;20102;-78
2023/04/26 05:56:51;;;;;;;24.50;3.45;;;15.40;58.10;;;;;;4951968;29;20047;-75
2023/04/26 05:59:17;;;;;;;23.48;3.20;;;15.40;58.10;;;;;;4921656;29;20517;-74
2023/04/26 06:01:42;;;;;;;26.58;2.63;;;15.30;57.00;;;;;;4940202;29;20058;-75
2023/04/26 06:04:08;;;;;;;19.23;2.65;;;15.30;57.40;;;;;;4957726;29;20058;-71
2023/04/26 06:06:34;;;;;;;16.52;2.28;;;15.30;55.60;;;;;;4956828;29;20050;-74
2023/04/26 06:09:00;;;;;;;15.20;2.63;;;15.30;56.30;;;;;;4956508;29;20043;-73
2023/04/26 06:11:26;;;;;;;12.65;2.30;;;15.30;56.10;;;;;;4956985;29;20118;-74
2023/04/26 06:13:51;;;;;;;16.95;2.55;;;15.30;56.00;;;;;;4956907;29;20480;-73
2023/04/26 06:16:17;;;;;;;9.95;1.95;;;15.20;56.00;;;;;;4957062;29;20054;-73
2023/04/26 06:18:43;;;;;;;12.07;1.77;;;15.20;56.00;;;;;;4956681;29;20043;-73
2023/04/26 06:21:09;;;;;;;9.88;1.60;;;15.20;56.80;;;;;;4957052;29;20043;-73
2023/04/26 06:23:34;;;;;;;10.70;1.98;;;15.20;56.20;;;;;;4956507;29;20077;-72
2023/04/26 06:26:00;;;;;;;9.13;1.50;;;15.10;56.30;;;;;;4956659;29;20122;-74
2023/04/26 06:28:26;;;;;;;12.25;1.98;;;15.00;56.30;;;;;;4957111;29;20055;-73
2023/04/26 06:30:52;;;;;;;10.40;2.03;;;15.00;56.40;;;;;;4950994;29;20473;-74
2023/04/26 06:33:17;;;;;;;8.85;2.17;;;15.00;56.50;;;;;;4947773;29;20445;-74
2023/04/26 06:35:43;;;;;;;13.30;1.90;;;15.00;56.60;;;;;;4944860;29;20140;-74
2023/04/26 06:38:11;;;;;;;8.43;1.10;;;15.00;56.70;;;;;;4951163;29;20446;-71
2023/04/26 06:40:37;;;;;;;19.83;2.22;;;14.90;56.60;;;;;;4956803;29;20059;-72
2023/04/26 06:43:03;;;;;;;13.27;2.05;;;14.90;56.70;;;;;;4956587;29;20398;-73
2023/04/26 06:45:29;;;;;;;10.23;2.03;;;14.90;56.70;;;;;;4958814;28;20047;-74
2023/04/26 06:47:55;;;;;;;14.98;2.10;;;14.80;56.60;;;;;;4960559;29;20048;-74
2023/04/26 06:50:21;;;;;;;14.82;2.38;;;14.80;56.70;;;;;;4960446;29;20145;-73
2023/04/26 06:52:47;;;;;;;12.77;1.67;;;14.80;57.40;;;;;;4960095;29;20085;-72
2023/04/26 06:55:12;;;;;;;10.80;2.60;;;14.70;56.60;;;;;;4952071;29;20122;-75
2023/04/26 06:57:38;;;;;;;20.05;3.40;;;14.70;56.50;;;;;;4946426;29;20047;-75
2023/04/26 07:00:05;;;;;;;19.92;2.83;;;14.70;56.70;;;;;;4959405;29;20040;-74
2023/04/26 07:02:30;;;;;;;17.70;3.17;;;14.60;57.30;;;;;;4959659;29;20051;-73
2023/04/26 07:04:56;;;;;;;14.48;2.83;;;14.60;57.30;;;;;;4959712;29;20058;-71
2023/04/26 07:07:22;;;;;;;20.20;3.00;;;14.60;57.00;;;;;;4959581;29;20133;-71
2023/04/26 07:09:48;;;;;;;11.70;2.08;;;14.60;56.60;;;;;;4959705;29;20347;-71
2023/04/26 07:12:14;;;;;;;10.52;1.90;;;14.60;56.20;;;;;;4959715;29;20047;-71
2023/04/26 07:14:42;;;;;;;15.15;2.30;;;14.60;55.80;;;;;;4959741;29;20126;-73
2023/04/26 07:17:11;;;;;;;10.40;1.48;;;14.60;55.20;;;;;;4940587;29;20553;-73
2023/04/26 07:19:37;;;;;;;10.60;2.35;;;14.60;54.80;;;;;;4955078;29;20047;-72
2023/04/26 07:22:03;;;;;;;7.70;1.27;;;14.60;54.50;;;;;;4959534;29;20099;-72
2023/04/26 07:24:29;;;;;;;7.75;1.55;;;14.60;54.20;;;;;;4952562;29;20063;-72
2023/04/26 07:26:55;;;;;;;12.75;2.17;;;14.50;54.00;;;;;;4957422;29;20049;-71
2023/04/26 07:29:21;;;;;;;9.38;1.77;;;14.60;53.60;;;;;;4955719;29;20058;-71
2023/04/26 07:31:47;;;;;;;15.90;2.35;;;14.50;53.30;;;;;;4958247;29;20403;-71
2023/04/26 07:34:13;;;;;;;7.60;1.67;;;14.50;53.10;;;;;;4960169;29;20103;-71
2023/04/26 07:36:39;;;;;;;9.35;1.70;;;14.50;53.20;;;;;;4959176;29;20051;-71
2023/04/26 07:39:05;;;;;;;7.43;1.70;;;14.50;53.30;;;;;;4960019;29;20395;-71
2023/04/26 07:41:31;;;;;;;7.35;1.40;;;14.50;54.10;;;;;;4959638;29;20043;-72
2023/04/26 07:43:57;;;;;;;11.20;1.88;;;14.40;53.60;;;;;;4958627;29;20050;-70
2023/04/26 07:46:23;;;;;;;9.10;1.40;;;14.40;53.80;;;;;;4959394;29;20100;-72
2023/04/26 07:48:49;;;;;;;21.55;3.20;;;14.40;53.80;;;;;;4959376;29;20530;-71
2023/04/26 07:51:15;;;;;;;13.65;2.40;;;14.40;53.80;;;;;;4952671;29;20051;-71
2023/04/26 07:53:41;;;;;;;12.25;2.05;;;14.40;54.30;;;;;;4959606;29;20047;-70
2023/04/26 07:56:08;;;;;;;10.90;1.92;;;14.30;54.00;;;;;;4958487;28;20091;-71
2023/04/26 07:58:35;;;;;;;11.93;2.50;;;14.30;54.40;;;;;;4958787;29;20046;-70
2023/04/26 08:01:02;;;;;;;15.32;2.47;;;14.20;55.00;;;;;;4959199;29;20474;-70
2023/04/26 08:03:28;;;;;;;11.82;1.67;;;14.20;55.30;;;;;;4958359;29;20125;-70
2023/04/26 08:05:54;;;;;;;7.38;1.52;;;14.20;55.00;;;;;;4958884;29;20198;-69
2023/04/26 08:08:21;;;;;;;5.70;1.20;;;14.20;53.00;;;;;;4958753;29;20058;-70
2023/04/26 08:10:47;;;;;;;9.30;1.75;;;14.00;52.20;;;;;;4955987;29;20035;-71
2023/04/26 08:13:13;;;;;;;10.43;2.08;;;13.80;52.40;;;;;;4953082;29;20074;-71
2023/04/26 08:15:39;;;;;;;6.07;1.02;;;13.60;52.60;;;;;;4954692;29;20457;-73
2023/04/26 08:18:05;;;;;;;6.05;1.17;;;13.40;53.60;;;;;;4957017;29;20039;-70
2023/04/26 08:20:33;;;;;;;14.10;2.13;;;13.30;54.20;;;;;;4958371;29;20106;-72
2023/04/26 08:22:59;;;;;;;10.30;1.85;;;13.30;54.70;;;;;;4959108;29;20055;-71
2023/04/26 08:25:25;;;;;;;9.25;1.67;;;13.40;55.00;;;;;;4958646;29;20047;-71
2023/04/26 08:27:51;;;;;;;6.15;1.65;;;13.50;55.10;;;;;;4958637;29;20043;-69
2023/04/26 08:30:18;;;;;;;7.95;1.60;;;13.50;55.20;;;;;;4951781;29;20137;-70
2023/04/26 08:32:44;;;;;;;16.55;2.47;;;13.50;55.60;;;;;;4958390;29;20050;-73
2023/04/26 08:35:10;;;;;;;11.50;1.95;;;13.40;55.80;;;;;;4957774;29;20047;-71
2023/04/26 08:37:36;;;;;;;14.05;2.80;;;13.40;56.30;;;;;;4957966;29;20062;-73
2023/04/26 08:40:09;;;;;;;16.73;3.20;;;13.40;56.60;;;;;;4958190;29;20094;-73
2023/04/26 08:42:44;;;;;;;10.70;1.70;;;13.40;55.90;;;;;;4958759;29;20074;-70
2023/04/26 08:45:10;;;;;;;15.35;2.20;;;13.20;55.70;;;;;;4958355;29;20039;-75
2023/04/26 08:48:02;;;;;;;17.88;2.70;;;13.00;56.50;;;;;;4955619;29;20047;-76
2023/04/26 08:50:30;;;;;;;28.33;3.47;;;13.00;57.40;;;;;;4958303;29;20350;-77
2023/04/26 08:52:55;;;;;;;21.30;3.35;;;13.20;58.00;;;;;;4936096;29;20056;-73
2023/04/26 08:55:22;;;;;;;26.73;3.58;;;13.20;58.20;;;;;;4954885;29;20043;-76
2023/04/26 08:57:49;;;;;;;27.40;4.53;;;13.30;58.50;;;;;;4957679;29;20122;-73
2023/04/26 09:00:17;;;;;;;28.05;4.03;;;13.30;58.80;;;;;;4958243;29;20043;-71
2023/04/26 09:02:51;;;;;;;42.45;4.65;;;13.40;58.90;;;;;;4957953;29;20067;-75
2023/04/26 09:05:25;;;;;;;23.00;4.85;;;13.50;58.90;;;;;;4957750;29;20059;-75
2023/04/26 09:07:55;;;;;;;24.88;4.03;;;13.50;58.90;;;;;;4956912;28;20359;-75
2023/04/26 09:10:21;;;;;;;29.35;5.88;;;13.50;59.20;;;;;;4958207;29;20039;-75
2023/04/26 09:12:54;;;;;;;31.98;3.72;;;13.60;59.10;;;;;;4958014;29;20437;-75
2023/04/26 09:15:21;;;;;;;31.30;4.55;;;13.70;59.20;;;;;;4957498;29;20058;-74
2023/04/26 09:17:48;;;;;;;37.15;4.32;;;13.90;59.00;;;;;;4957577;29;20051;-75
2023/04/26 09:20:24;;;;;;;31.35;4.65;;;14.10;58.90;;;;;;4940411;29;20047;-76
2023/04/26 09:22:52;;;;;;;41.67;6.22;;;14.30;59.20;;;;;;4957537;29;20051;-77
2023/04/26 09:25:26;;;;;;;35.20;6.30;;;14.50;59.00;;;;;;4957154;29;20454;-77
2023/04/26 09:27:52;;;;;;;43.13;6.80;;;14.60;59.00;;;;;;4957438;29;20051;-77
2023/04/26 09:30:19;;;;;;;42.20;5.45;;;14.70;59.00;;;;;;4940382;29;20135;-77
2023/04/26 09:32:57;;;;;;;41.33;5.38;;;14.80;59.10;;;;;;4957544;29;20062;-75
2023/04/26 09:35:37;;;;;;;50.17;6.05;;;14.90;59.40;;;;;;4940261;29;20054;-76
2023/04/26 09:38:13;;;;;;;42.65;6.05;;;14.90;59.70;;;;;;4957175;29;20051;-73
2023/04/26 09:40:46;;;;;;;55.08;7.82;;;14.90;59.60;;;;;;4956836;29;20050;-75
2023/04/26 09:43:14;;;;;;;55.97;8.48;;;15.00;59.90;;;;;;4956972;29;20062;-74
2023/04/26 09:45:49;;;;;;;76.15;8.40;;;15.00;60.00;;;;;;4957289;29;20058;-72
2023/04/26 09:48:15;;;;;;;65.75;8.93;;;15.00;60.20;;;;;;4957036;29;20055;-73
2023/04/26 09:50:46;;;;;;;64.97;8.88;;;15.10;60.20;;;;;;4956800;29;20451;-75
2023/04/26 09:53:27;;;;;;;54.38;7.30;;;15.10;60.30;;;;;;4957179;29;20039;-74
2023/04/26 09:55:54;;;;;;;59.25;8.18;;;15.10;60.50;;;;;;4956557;29;20206;-76
2023/04/26 09:58:20;;;;;;;51.42;7.60;;;15.20;60.40;;;;;;4956793;29;20047;-75
2023/04/26 10:00:50;;;;;;;27.77;5.25;;;15.20;60.40;;;;;;4956688;29;20061;-75
2023/04/26 10:03:19;;;;;;;43.88;7.40;;;15.20;58.90;;;;;;4956955;29;20055;-74
2023/04/26 10:05:46;;;;;;;46.78;6.45;;;15.30;58.50;;;;;;4957550;29;20047;-70
2023/04/26 10:08:12;;;;;;;35.60;5.72;;;15.40;58.30;;;;;;4956854;29;20047;-72
2023/04/26 10:10:38;;;;;;;37.42;5.18;;;15.40;58.30;;;;;;4956833;29;20054;-70
2023/04/26 10:13:05;;;;;;;42.97;5.50;;;15.60;57.60;;;;;;4957647;29;20370;-70
2023/04/26 10:15:31;;;;;;;26.92;4.03;;;15.60;57.00;;;;;;4953584;29;20458;-72
2023/04/26 10:17:57;;;;;;;21.92;3.50;;;15.70;56.40;;;;;;4951206;29;20047;-73
2023/04/26 10:20:27;;;;;;;26.10;3.92;;;15.90;56.30;;;;;;4960075;28;20035;-71
2023/04/26 10:23:00;;;;;;;29.00;3.72;;;16.00;56.40;;;;;;4961292;29;20058;-72
2023/04/26 10:25:39;;;;;;;21.52;3.88;;;16.10;56.50;;;;;;4954521;29;20073;-73
2023/04/26 10:28:05;;;;;;;32.30;4.35;;;16.20;56.50;;;;;;4959533;29;20327;-73
2023/04/26 10:30:31;;;;;;;22.50;3.53;;;16.20;56.60;;;;;;4960553;29;20129;-73
2023/04/26 10:32:56;;;;;;;16.70;2.95;;;16.20;56.80;;;;;;4955532;29;20054;-75
2023/04/26 10:35:24;;;;;;;17.98;2.90;;;16.20;56.90;;;;;;4959661;29;20062;-75
2023/04/26 10:38:02;;;;;;;27.20;4.43;;;16.20;57.00;;;;;;4960626;29;20075;-75
2023/04/26 10:40:38;;;;;;;19.92;2.80;;;16.20;57.10;;;;;;4958851;29;20075;-74
2023/04/26 10:43:17;;;;;;;28.80;4.07;;;16.20;57.20;;;;;;4960548;29;20398;-74
2023/04/26 10:45:46;;;;;;;31.50;4.07;;;16.20;57.40;;;;;;4957574;29;20047;-74
2023/04/26 10:48:19;;;;;;;40.58;4.63;;;16.20;57.50;;;;;;4945573;29;20180;-74
2023/04/26 10:51:11;;;;;;;26.52;4.47;;;16.10;57.60;;;;;;4945066;29;20462;-74
2023/04/26 10:53:45;;;;;;;23.55;3.97;;;16.20;57.60;;;;;;4940895;29;20052;-74
2023/04/26 10:56:31;;;;;;;15.52;2.40;;;16.20;56.80;;;;;;4941001;29;20107;-74
2023/04/26 10:59:18;;;;;;;19.00;2.28;;;16.10;54.60;;;;;;4940661;29;20550;-74
2023/04/26 11:01:45;;;;;;;18.25;2.72;;;16.00;54.30;;;;;;4943366;29;20059;-74
2023/04/26 11:04:11;;;;;;;18.02;2.33;;;16.00;54.80;;;;;;4949807;29;20462;-74
2023/04/26 11:06:54;;;;;;;19.80;3.00;;;16.00;55.30;;;;;;4942909;29;20429;-74
2023/04/26 11:09:35;;;;;;;24.92;3.63;;;16.00;55.50;;;;;;4959576;29;20053;-74
2023/04/26 11:12:17;;;;;;;30.17;3.75;;;16.10;56.00;;;;;;4940697;29;20130;-74
2023/04/26 11:14:45;;;;;;;24.05;3.25;;;16.10;56.20;;;;;;4941487;29;20362;-70
2023/04/26 11:17:11;;;;;;;28.40;3.40;;;16.10;56.50;;;;;;4940893;29;20048;-71
2023/04/26 11:19:37;;;;;;;19.98;2.83;;;16.20;56.80;;;;;;4940513;29;20181;-70
2023/04/26 11:22:06;;;;;;;31.08;3.95;;;16.20;57.00;;;;;;4942111;29;20452;-70
2023/04/26 11:24:35;;;;;;;18.33;3.30;;;16.20;57.30;;;;;;4955152;29;20574;-70
2023/04/26 11:27:07;;;;;;;29.10;4.18;;;16.10;57.40;;;;;;4959443;29;20047;-70
2023/04/26 11:29:33;;;;;;;26.10;4.35;;;16.20;57.80;;;;;;4959396;29;20139;-71
2023/04/26 11:31:58;;;;;;;26.08;3.70;;;16.20;58.30;;;;;;4958696;28;20470;-70
2023/04/26 11:34:34;;;;;;;24.77;3.55;;;16.20;58.50;;;;;;4959325;29;20049;-70
2023/04/26 11:37:04;;;;;;;38.55;5.40;;;16.10;58.60;;;;;;4958808;29;20462;-69
2023/04/26 11:39:31;;;;;;;26.60;4.28;;;16.10;58.90;;;;;;4950694;29;20051;-70
2023/04/26 11:42:07;;;;;;;38.58;5.30;;;16.10;59.10;;;;;;4959081;29;20043;-70
2023/04/26 11:44:34;;;;;;;21.83;3.35;;;16.10;57.80;;;;;;4957255;29;20050;-70
2023/04/26 11:47:04;;;;;;;33.88;4.55;;;16.00;57.60;;;;;;4959005;29;20138;-70
2023/04/26 11:49:35;;;;;;;21.45;3.40;;;16.00;57.40;;;;;;4959048;29;20047;-70
2023/04/26 11:52:03;;;;;;;28.85;4.78;;;15.90;57.10;;;;;;4958787;29;20382;-70
2023/04/26 11:54:33;;;;;;;26.17;3.17;;;15.90;57.20;;;;;;4955639;29;20048;-70
2023/04/26 11:57:00;;;;;;;20.58;2.78;;;15.90;57.10;;;;;;4948905;29;20047;-70
2023/04/26 11:59:30;;;;;;;16.30;2.75;;;15.80;57.20;;;;;;4952255;29;20043;-71
2023/04/26 12:01:56;;;;;;;17.38;2.63;;;15.80;57.30;;;;;;4958389;29;20066;-71
2023/04/26 12:04:29;;;;;;;10.50;1.65;;;15.80;56.90;;;;;;4958882;29;20050;-70
2023/04/26 12:06:56;;;;;;;12.50;2.23;;;15.70;56.00;;;;;;4959163;29;20054;-70
2023/04/26 12:09:26;;;;;;;12.18;2.33;;;15.70;56.10;;;;;;4958665;29;20043;-71
2023/04/26 12:12:00;;;;;;;11.80;1.85;;;15.70;55.80;;;;;;4958329;29;20055;-70
2023/04/26 12:14:32;;;;;;;11.90;1.92;;;15.60;55.40;;;;;;4959169;29;20043;-70
2023/04/26 12:17:00;;;;;;;7.78;1.80;;;15.60;55.00;;;;;;4958599;29;20043;-71
2023/04/26 12:19:38;;;;;;;7.47;1.33;;;15.60;54.60;;;;;;4958736;29;20110;-71
2023/04/26 12:22:07;;;;;;;6.97;1.27;;;15.60;53.90;;;;;;4958625;29;20113;-70
2023/04/26 12:24:35;;;;;;;7.47;1.02;;;15.60;53.80;;;;;;4958401;29;20378;-70
2023/04/26 12:27:03;;;;;;;5.50;1.45;;;15.50;53.50;;;;;;4939676;29;20052;-71
2023/04/26 12:29:32;;;;;;;7.05;1.08;;;15.50;53.50;;;;;;4939403;29;20056;-71
2023/04/26 12:31:59;;;;;;;4.63;1.35;;;15.50;53.40;;;;;;4939277;29;20056;-70
2023/04/26 12:34:25;;;;;;;7.13;1.20;;;15.40;52.90;;;;;;4939073;29;20035;-71
2023/04/26 12:36:50;;;;;;;2.72;1.10;;;15.40;53.00;;;;;;4939745;29;20058;-71
2023/04/26 12:39:16;;;;;;;4.97;1.48;;;15.40;53.10;;;;;;4939417;29;20537;-71
2023/04/26 12:41:43;;;;;;;6.25;1.23;;;15.40;53.10;;;;;;4939059;29;20091;-71
2023/04/26 12:44:10;;;;;;;6.95;1.23;;;15.30;53.30;;;;;;4939447;29;20416;-71
2023/04/26 12:46:35;;;;;;;4.25;0.77;;;15.30;53.60;;;;;;4939035;29;20415;-70
2023/04/26 12:49:02;;;;;;;4.32;1.13;;;15.20;53.80;;;;;;4939101;29;20118;-70
2023/04/26 12:51:28;;;;;;;13.15;1.60;;;15.20;54.10;;;;;;4953582;29;20054;-72
2023/04/26 12:53:55;;;;;;;13.75;2.88;;;15.20;54.50;;;;;;4955686;29;20474;-72
2023/04/26 12:56:21;;;;;;;11.48;1.73;;;15.20;55.20;;;;;;4946969;29;20103;-73
2023/04/26 12:58:50;;;;;;;15.32;2.08;;;15.20;55.40;;;;;;4946988;29;20047;-72
2023/04/26 13:01:16;;;;;;;11.68;2.50;;;15.10;55.90;;;;;;4924895;29;20065;-73
2023/04/26 13:03:42;;;;;;;15.27;2.67;;;15.10;56.40;;;;;;4951364;29;20079;-71
2023/04/26 13:06:08;;;;;;;20.38;2.92;;;15.10;56.80;;;;;;4951635;29;20090;-70
2023/04/26 13:08:34;;;;;;;13.50;2.78;;;15.00;56.80;;;;;;4951656;29;20044;-71
2023/04/26 13:11:00;;;;;;;14.70;2.80;;;15.10;56.70;;;;;;4946458;29;20069;-70
2023/04/26 13:13:26;;;;;;;15.18;2.60;;;15.00;56.20;;;;;;4946639;29;20508;-70
2023/04/26 13:15:52;;;;;;;20.25;3.05;;;15.00;55.90;;;;;;4950906;29;20050;-72
2023/04/26 13:18:17;;;;;;;21.20;3.63;;;14.90;55.90;;;;;;4951284;29;20070;-73
2023/04/26 13:20:44;;;;;;;25.75;3.55;;;14.90;56.00;;;;;;4957241;29;20039;-71
2023/04/26 13:23:10;;;;;;;24.42;2.85;;;14.90;56.40;;;;;;4956505;28;20445;-71
2023/04/26 13:25:36;;;;;;;20.58;3.30;;;14.90;56.70;;;;;;4938773;29;20114;-71
2023/04/26 13:28:03;;;;;;;24.67;3.38;;;14.90;56.90;;;;;;4947877;29;20063;-71
2023/04/26 13:30:29;;;;;;;18.83;3.50;;;14.90;56.80;;;;;;4949553;29;20062;-71
2023/04/26 13:32:54;;;;;;;21.10;3.85;;;14.90;56.60;;;;;;4955575;29;20061;-72
2023/04/26 13:35:20;;;;;;;25.17;3.83;;;14.90;56.80;;;;;;4957138;29;20126;-73
2023/04/26 13:37:47;;;;;;;21.40;4.10;;;14.90;57.10;;;;;;4957342;29;20047;-73
2023/04/26 13:40:13;;;;;;;19.77;3.25;;;14.90;57.20;;;;;;4938188;29;20131;-74
2023/04/26 13:42:40;;;;;;;25.38;4.00;;;14.90;56.50;;;;;;4937866;29;20087;-73
2023/04/26 13:45:08;;;;;;;19.98;3.15;;;14.80;55.50;;;;;;4938467;29;20052;-73
2023/04/26 13:47:35;;;;;;;16.92;2.53;;;14.80;55.20;;;;;;4937815;29;20101;-73
2023/04/26 13:50:01;;;;;;;21.60;3.60;;;14.80;54.70;;;;;;4937863;29;20060;-73
2023/04/26 13:52:27;;;;;;;10.93;1.88;;;14.70;54.60;;;;;;4937566;29;20328;-74
2023/04/26 13:54:53;;;;;;;17.52;2.83;;;14.70;54.30;;;;;;4948691;29;20082;-73
2023/04/26 13:57:19;;;;;;;16.98;2.85;;;14.70;54.50;;;;;;4957152;29;20126;-72
2023/04/26 13:59:45;;;;;;;16.02;3.08;;;14.60;55.10;;;;;;4957156;29;20043;-72
2023/04/26 14:02:14;;;;;;;12.60;2.58;;;14.70;55.60;;;;;;4957158;29;20058;-73
2023/04/26 14:04:40;;;;;;;15.27;2.70;;;14.70;55.90;;;;;;4956829;29;20062;-72
2023/04/26 14:07:06;;;;;;;13.88;2.47;;;14.70;56.20;;;;;;4957009;29;20051;-73
2023/04/26 14:09:32;;;;;;;7.78;2.00;;;14.60;56.40;;;;;;4956620;29;20063;-72
2023/04/26 14:11:58;;;;;;;14.10;2.47;;;14.60;56.60;;;;;;4956992;29;20054;-72
2023/04/26 14:14:24;;;;;;;11.18;2.50;;;14.60;56.80;;;;;;4957212;29;20074;-72
2023/04/26 14:16:50;;;;;;;8.55;1.88;;;14.60;57.00;;;;;;4956544;29;20047;-73
2023/04/26 14:19:16;;;;;;;10.55;2.28;;;14.60;57.20;;;;;;4956655;29;20477;-72
2023/04/26 14:21:42;;;;;;;13.45;2.10;;;14.60;57.40;;;;;;4957065;29;20076;-72
2023/04/26 14:24:08;;;;;;;8.05;1.98;;;14.60;57.60;;;;;;4956632;29;20390;-73
2023/04/26 14:26:34;;;;;;;8.52;1.55;;;14.60;57.70;;;;;;4956787;29;20106;-72
2023/04/26 14:29:00;;;;;;;10.45;1.75;;;14.60;57.80;;;;;;4956890;29;20051;-72
2023/04/26 14:31:26;;;;;;;6.28;2.17;;;14.60;58.00;;;;;;4957420;29;20422;-72
2023/04/26 14:33:53;;;;;;;10.80;1.85;;;14.60;58.10;;;;;;4956336;29;20047;-72
2023/04/26 14:36:19;;;;;;;8.95;1.70;;;14.60;58.30;;;;;;4956746;29;20114;-73
2023/04/26 14:38:45;;;;;;;6.32;2.00;;;14.60;58.40;;;;;;4956757;29;20138;-72
2023/04/26 14:41:15;;;;;;;8.27;2.05;;;14.60;58.50;;;;;;4956553;29;20115;-73
2023/04/26 14:43:41;;;;;;;10.20;1.88;;;14.60;58.60;;;;;;4956653;29;20066;-72
2023/04/26 14:46:07;;;;;;;11.10;1.70;;;14.60;58.70;;;;;;4956370;29;20055;-73
2023/04/26 14:48:33;;;;;;;6.25;1.67;;;14.60;58.80;;;;;;4952982;29;20418;-72
2023/04/26 14:50:59;;;;;;;7.97;1.70;;;14.60;58.90;;;;;;4956255;29;20051;-72
2023/04/26 14:53:25;;;;;;;15.63;1.92;;;14.60;58.90;;;;;;4937986;29;20388;-72
2023/04/26 14:55:55;;;;;;;10.20;2.50;;;14.60;58.90;;;;;;4949950;29;20048;-72
2023/04/26 14:58:21;;;;;;;7.70;2.28;;;14.60;59.10;;;;;;4953851;29;20092;-73
2023/04/26 15:00:47;;;;;;;5.45;1.98;;;14.60;59.20;;;;;;4956388;29;20070;-72
2023/04/26 15:03:13;;;;;;;9.75;1.48;;;14.60;59.10;;;;;;4956394;29;20051;-72
2023/04/26 15:05:38;;;;;;;8.98;1.60;;;14.80;59.20;;;;;;4957639;28;20130;-72
2023/04/26 15:08:05;;;;;;;8.70;1.05;;;15.00;59.20;;;;;;4959575;29;20054;-72
2023/04/26 15:10:31;;;;;;;12.82;1.92;;;15.10;59.80;;;;;;4953600;29;20130;-73
2023/04/26 15:12:57;;;;;;;12.20;1.77;;;15.40;59.20;;;;;;4958206;29;20051;-73
2023/04/26 15:15:23;;;;;;;9.38;1.60;;;15.60;58.70;;;;;;4952109;29;20443;-72
2023/04/26 15:17:49;;;;;;;8.73;1.55;;;15.60;58.60;;;;;;4940920;29;20375;-72
2023/04/26 15:20:14;;;;;;;7.72;1.23;;;15.80;58.60;;;;;;4938587;29;20051;-72
2023/04/26 15:22:40;;;;;;;17.40;2.05;;;15.80;58.40;;;;;;4957942;29;20379;-72
2023/04/26 15:25:07;;;;;;;11.02;1.25;;;15.90;58.60;;;;;;4943622;29;20106;-72
2023/04/26 15:27:36;;;;;;;7.63;1.88;;;15.90;58.60;;;;;;4948804;29;20054;-75
2023/04/26 15:30:03;;;;;;;12.73;2.45;;;16.00;58.60;;;;;;4953443;29;20059;-75
2023/04/26 15:32:29;;;;;;;23.83;3.40;;;16.00;58.40;;;;;;4940335;29;20064;-74
2023/04/26 15:34:55;;;;;;;14.60;2.22;;;16.00;58.30;;;;;;4943991;29;20047;-75
2023/04/26 15:37:24;;;;;;;16.10;2.58;;;16.00;58.40;;;;;;4959369;29;20047;-76
2023/04/26 15:39:50;;;;;;;15.98;2.80;;;16.00;58.70;;;;;;4959546;29;20043;-81
2023/04/26 15:42:16;;;;;;;21.13;3.08;;;16.00;59.00;;;;;;4959219;29;20066;-78
2023/04/26 15:44:41;;;;;;;15.02;2.30;;;16.00;59.20;;;;;;4959151;29;20051;-81
2023/04/26 15:47:07;;;;;;;17.40;2.28;;;16.00;59.90;;;;;;4958987;29;20043;-78
2023/04/26 15:49:33;;;;;;;19.83;2.83;;;16.00;60.30;;;;;;4959068;29;20369;-79
2023/04/26 15:51:58;;;;;;;16.67;3.35;;;16.00;61.00;;;;;;4959422;29;20118;-78
2023/04/26 15:54:25;;;;;;;28.00;3.92;;;16.00;61.80;;;;;;4959217;29;20051;-78
2023/04/26 15:56:52;;;;;;;25.55;3.40;;;16.00;62.60;;;;;;4958846;29;20469;-77
2023/04/26 15:59:19;;;;;;;24.75;3.58;;;16.10;62.80;;;;;;4931006;29;20043;-78
2023/04/26 16:01:46;;;;;;;23.90;3.67;;;16.10;63.10;;;;;;4957343;29;20066;-77
2023/04/26 16:04:11;;;;;;;21.88;3.22;;;16.10;64.00;;;;;;4958955;29;20047;-77
2023/04/26 16:06:37;;;;;;;20.75;2.97;;;16.20;64.40;;;;;;4959206;29;20047;-77
2023/04/26 16:09:07;;;;;;;26.55;4.20;;;16.30;63.30;;;;;;4954830;29;20054;-77
2023/04/26 16:11:34;;;;;;;27.63;3.92;;;16.40;63.50;;;;;;4959029;29;20098;-73
2023/04/26 16:14:00;;;;;;;20.48;3.03;;;16.50;63.30;;;;;;4958919;29;20130;-73
2023/04/26 16:16:26;;;;;;;10.80;1.58;;;16.60;61.80;;;;;;4957750;28;20138;-75
2023/04/26 16:18:51;;;;;;;10.13;1.42;;;16.60;56.20;;;;;;4940816;29;20051;-73
2023/04/26 16:21:17;;;;;;;13.13;1.83;;;16.40;54.60;;;;;;4957555;29;20126;-76
2023/04/26 16:23:44;;;;;;;12.25;2.42;;;16.30;55.00;;;;;;4952955;29;20078;-76
2023/04/26 16:26:09;;;;;;;16.88;2.60;;;16.40;56.30;;;;;;4940114;29;20068;-75
2023/04/26 16:28:35;;;;;;;18.15;2.53;;;16.40;56.70;;;;;;4939274;29;20044;-74
2023/04/26 16:31:01;;;;;;;17.65;1.90;;;16.40;57.30;;;;;;4938914;29;20361;-75
2023/04/26 16:33:27;;;;;;;10.30;1.92;;;16.40;58.00;;;;;;4939660;29;20103;-74
2023/04/26 16:35:54;;;;;;;16.85;2.40;;;16.50;58.70;;;;;;4939034;29;20461;-74
2023/04/26 16:38:23;;;;;;;15.38;2.63;;;16.50;59.40;;;;;;4939056;29;20055;-74
2023/04/26 16:40:58;;;;;;;9.40;1.98;;;16.50;60.00;;;;;;4939224;29;20043;-74
2023/04/26 16:43:27;;;;;;;15.98;2.72;;;16.50;60.70;;;;;;4939265;29;20051;-74
2023/04/26 16:46:06;;;;;;;15.85;2.40;;;16.60;61.10;;;;;;4945218;29;20174;-74
2023/04/26 16:48:36;;;;;;;14.30;2.67;;;16.60;61.50;;;;;;4958103;29;20039;-74
2023/04/26 16:51:04;;;;;;;15.15;2.38;;;16.60;61.70;;;;;;4958148;29;20054;-73
2023/04/26 16:53:30;;;;;;;22.70;3.25;;;16.60;61.80;;;;;;4957872;29;20047;-73
2023/04/26 16:55:57;;;;;;;17.90;3.17;;;16.60;61.80;;;;;;4957868;29;20047;-72
2023/04/26 16:58:23;;;;;;;25.02;3.28;;;16.60;62.10;;;;;;4958214;29;20047;-73
2023/04/26 17:00:49;;;;;;;31.50;3.28;;;16.60;62.20;;;;;;4957445;29;20054;-73
2023/04/26 17:03:15;;;;;;;22.92;3.35;;;16.50;62.20;;;;;;4958466;29;20059;-72
2023/04/26 17:05:45;;;;;;;36.33;4.90;;;16.50;62.30;;;;;;4958044;29;20062;-73
2023/04/26 17:08:12;;;;;;;28.88;3.40;;;16.50;62.50;;;;;;4957397;29;20039;-72